Terminal Aerodrome Forecast
Issued by NWS

Current Version | Previous Version | Text Only | Print | Product List | Glossary On
Versions: 1 2 3 4 5 6 7 8 9 10 11 12 13 14 15 16
000
FTUS43 KLSX 261700
TAFSUS
TAF
KSUS 261736Z 2618/2718 24012G20KT P6SM SCT250
     FM262200 23014KT P6SM VCTS SCT060CB BKN250
     FM270200 20008KT P6SM SCT200
     FM271200 30012KT P6SM SCT040=

USA.gov is the U.S. government's official web portal to all federal, state and local government web resources and services.